Terminal Aerodrome Forecast
Issued by NWS

Home | Current Version | Previous Version | Graphics & Text | Print | Product List | Glossary On
Versions: 1 2 3 4 5 6 7 8 9 10 11 12 13 14 15 16 17 18 19 20 21 22 23 24
000
FTUS45 KGGW 201131
TAFGDV
TAF
KGDV 201131Z 2012/2112 25008KT P6SM FEW050 SCT120
     FM210700 24005KT 5SM BR FEW080
     FM210800 24005KT P6SM FEW080=

USA.gov is the U.S. government's official web portal to all federal, state and local government web resources and services.